sensor_id;sensor_type;location;lat;lon;timestamp;temperature;humidity
82901;DHT22;72673;50.822;3.280;2023-09-08T00:00:56;24.50;63.70
82901;DHT22;72673;50.822;3.280;2023-09-08T00:03:22;24.50;64.00
82901;DHT22;72673;50.822;3.280;2023-09-08T00:05:47;24.30;64.50
82901;DHT22;72673;50.822;3.280;2023-09-08T00:08:13;24.20;64.70
82901;DHT22;72673;50.822;3.280;2023-09-08T00:10:39;24.30;64.40
82901;DHT22;72673;50.822;3.280;2023-09-08T00:13:04;24.40;65.20
82901;DHT22;72673;50.822;3.280;2023-09-08T00:15:30;24.40;64.10
82901;DHT22;72673;50.822;3.280;2023-09-08T00:17:58;24.50;63.90
82901;DHT22;72673;50.822;3.280;2023-09-08T00:20:24;24.50;63.80
82901;DHT22;72673;50.822;3.280;2023-09-08T00:22:50;24.50;63.40
82901;DHT22;72673;50.822;3.280;2023-09-08T00:25:15;24.60;63.30
82901;DHT22;72673;50.822;3.280;2023-09-08T00:27:41;24.40;63.80
82901;DHT22;72673;50.822;3.280;2023-09-08T00:30:07;24.40;64.00
82901;DHT22;72673;50.822;3.280;2023-09-08T00:32:33;24.40;63.80
82901;DHT22;72673;50.822;3.280;2023-09-08T00:34:58;24.30;64.30
82901;DHT22;72673;50.822;3.280;2023-09-08T00:37:24;24.20;64.60
82901;DHT22;72673;50.822;3.280;2023-09-08T00:39:49;24.20;64.40
82901;DHT22;72673;50.822;3.280;2023-09-08T00:42:15;24.20;64.60
82901;DHT22;72673;50.822;3.280;2023-09-08T00:44:41;24.10;64.60
82901;DHT22;72673;50.822;3.280;2023-09-08T00:47:06;24.10;64.80
82901;DHT22;72673;50.822;3.280;2023-09-08T00:49:32;24.10;65.00
82901;DHT22;72673;50.822;3.280;2023-09-08T00:51:58;24.10;64.70
82901;DHT22;72673;50.822;3.280;2023-09-08T00:54:24;24.10;65.10
82901;DHT22;72673;50.822;3.280;2023-09-08T00:56:55;24.10;65.00
82901;DHT22;72673;50.822;3.280;2023-09-08T00:59:20;24.10;65.10
82901;DHT22;72673;50.822;3.280;2023-09-08T01:01:46;24.10;65.10
82901;DHT22;72673;50.822;3.280;2023-09-08T01:04:12;24.10;64.90
82901;DHT22;72673;50.822;3.280;2023-09-08T01:06:38;24.00;65.40
82901;DHT22;72673;50.822;3.280;2023-09-08T01:09:04;24.00;65.10
82901;DHT22;72673;50.822;3.280;2023-09-08T01:11:30;24.00;65.20
82901;DHT22;72673;50.822;3.280;2023-09-08T01:13:57;24.00;65.20
82901;DHT22;72673;50.822;3.280;2023-09-08T01:16:22;24.00;65.30
82901;DHT22;72673;50.822;3.280;2023-09-08T01:18:49;23.90;65.50
82901;DHT22;72673;50.822;3.280;2023-09-08T01:26:54;23.40;67.10
82901;DHT22;72673;50.822;3.280;2023-09-08T01:29:20;23.30;67.70
82901;DHT22;72673;50.822;3.280;2023-09-08T01:31:48;23.40;67.30
82901;DHT22;72673;50.822;3.280;2023-09-08T01:34:15;23.40;67.30
82901;DHT22;72673;50.822;3.280;2023-09-08T01:36:41;23.50;66.90
82901;DHT22;72673;50.822;3.280;2023-09-08T01:39:07;23.40;67.00
82901;DHT22;72673;50.822;3.280;2023-09-08T01:41:33;23.50;67.00
82901;DHT22;72673;50.822;3.280;2023-09-08T01:43:59;23.50;66.80
82901;DHT22;72673;50.822;3.280;2023-09-08T01:46:25;23.40;67.10
82901;DHT22;72673;50.822;3.280;2023-09-08T01:48:50;23.40;67.20
82901;DHT22;72673;50.822;3.280;2023-09-08T01:51:16;23.20;67.80
82901;DHT22;72673;50.822;3.280;2023-09-08T01:53:42;23.30;67.80
82901;DHT22;72673;50.822;3.280;2023-09-08T01:56:07;23.30;67.60
82901;DHT22;72673;50.822;3.280;2023-09-08T01:58:33;23.30;67.60
82901;DHT22;72673;50.822;3.280;2023-09-08T02:00:59;23.20;68.00
82901;DHT22;72673;50.822;3.280;2023-09-08T02:03:31;23.10;68.40
82901;DHT22;72673;50.822;3.280;2023-09-08T02:05:57;23.10;68.50
82901;DHT22;72673;50.822;3.280;2023-09-08T02:08:22;23.10;68.30
82901;DHT22;72673;50.822;3.280;2023-09-08T02:10:48;23.00;68.60
82901;DHT22;72673;50.822;3.280;2023-09-08T02:13:13;23.00;68.60
82901;DHT22;72673;50.822;3.280;2023-09-08T02:15:39;22.90;69.10
82901;DHT22;72673;50.822;3.280;2023-09-08T02:18:06;22.90;69.80
82901;DHT22;72673;50.822;3.280;2023-09-08T02:20:32;23.10;68.20
82901;DHT22;72673;50.822;3.280;2023-09-08T02:23:03;23.00;68.20
82901;DHT22;72673;50.822;3.280;2023-09-08T02:25:28;23.00;68.40
82901;DHT22;72673;50.822;3.280;2023-09-08T02:27:54;22.90;68.50
82901;DHT22;72673;50.822;3.280;2023-09-08T02:30:20;22.80;69.30
82901;DHT22;72673;50.822;3.280;2023-09-08T02:32:45;22.70;69.60
82901;DHT22;72673;50.822;3.280;2023-09-08T02:35:11;22.70;69.60
82901;DHT22;72673;50.822;3.280;2023-09-08T02:37:36;22.80;69.20
82901;DHT22;72673;50.822;3.280;2023-09-08T02:40:02;22.80;69.00
82901;DHT22;72673;50.822;3.280;2023-09-08T02:42:29;22.70;69.40
82901;DHT22;72673;50.822;3.280;2023-09-08T02:44:54;22.80;68.90
82901;DHT22;72673;50.822;3.280;2023-09-08T02:47:20;22.90;68.80
82901;DHT22;72673;50.822;3.280;2023-09-08T02:49:45;22.90;68.50
82901;DHT22;72673;50.822;3.280;2023-09-08T02:52:11;22.70;69.10
82901;DHT22;72673;50.822;3.280;2023-09-08T02:54:37;22.70;69.30
82901;DHT22;72673;50.822;3.280;2023-09-08T02:57:02;22.60;69.50
82901;DHT22;72673;50.822;3.280;2023-09-08T02:59:28;22.60;69.20
82901;DHT22;72673;50.822;3.280;2023-09-08T03:01:54;22.70;69.10
82901;DHT22;72673;50.822;3.280;2023-09-08T03:04:19;22.80;68.50
82901;DHT22;72673;50.822;3.280;2023-09-08T03:06:45;22.90;68.40
82901;DHT22;72673;50.822;3.280;2023-09-08T03:09:11;22.90;68.30
82901;DHT22;72673;50.822;3.280;2023-09-08T03:11:36;22.80;68.60
82901;DHT22;72673;50.822;3.280;2023-09-08T03:14:02;22.70;68.90
82901;DHT22;72673;50.822;3.280;2023-09-08T03:16:28;22.70;68.90
82901;DHT22;72673;50.822;3.280;2023-09-08T03:18:54;22.70;69.00
82901;DHT22;72673;50.822;3.280;2023-09-08T03:21:19;22.80;68.70
82901;DHT22;72673;50.822;3.280;2023-09-08T03:23:45;22.90;68.00
82901;DHT22;72673;50.822;3.280;2023-09-08T03:26:11;22.90;68.00
82901;DHT22;72673;50.822;3.280;2023-09-08T03:28:37;22.80;68.70
82901;DHT22;72673;50.822;3.280;2023-09-08T03:31:04;22.80;68.60
82901;DHT22;72673;50.822;3.280;2023-09-08T03:33:31;22.80;68.50
82901;DHT22;72673;50.822;3.280;2023-09-08T03:35:56;22.90;68.60
82901;DHT22;72673;50.822;3.280;2023-09-08T03:38:23;22.90;68.70
82901;DHT22;72673;50.822;3.280;2023-09-08T03:40:48;22.90;68.40
82901;DHT22;72673;50.822;3.280;2023-09-08T03:43:14;22.90;68.00
82901;DHT22;72673;50.822;3.280;2023-09-08T03:45:40;23.00;68.00
82901;DHT22;72673;50.822;3.280;2023-09-08T03:48:06;22.90;68.40
82901;DHT22;72673;50.822;3.280;2023-09-08T03:50:31;22.90;68.20
82901;DHT22;72673;50.822;3.280;2023-09-08T03:52:57;22.90;68.00
82901;DHT22;72673;50.822;3.280;2023-09-08T03:55:23;22.60;68.80
82901;DHT22;72673;50.822;3.280;2023-09-08T03:57:48;22.60;69.60
82901;DHT22;72673;50.822;3.280;2023-09-08T04:00:14;22.70;68.80
82901;DHT22;72673;50.822;3.280;2023-09-08T04:02:49;22.90;68.20
82901;DHT22;72673;50.822;3.280;2023-09-08T04:05:16;22.70;68.80
82901;DHT22;72673;50.822;3.280;2023-09-08T04:07:42;22.50;69.90
82901;DHT22;72673;50.822;3.280;2023-09-08T04:10:08;22.30;71.70
82901;DHT22;72673;50.822;3.280;2023-09-08T04:12:34;22.30;70.70
82901;DHT22;72673;50.822;3.280;2023-09-08T04:15:00;22.30;70.30
82901;DHT22;72673;50.822;3.280;2023-09-08T04:17:25;22.20;70.80
82901;DHT22;72673;50.822;3.280;2023-09-08T04:19:51;22.30;70.30
82901;DHT22;72673;50.822;3.280;2023-09-08T04:22:16;22.40;70.00
82901;DHT22;72673;50.822;3.280;2023-09-08T04:24:42;22.40;69.70
82901;DHT22;72673;50.822;3.280;2023-09-08T04:27:08;22.30;69.70
82901;DHT22;72673;50.822;3.280;2023-09-08T04:29:34;22.20;70.70
82901;DHT22;72673;50.822;3.280;2023-09-08T04:32:00;22.20;70.80
82901;DHT22;72673;50.822;3.280;2023-09-08T04:34:25;22.30;70.20
82901;DHT22;72673;50.822;3.280;2023-09-08T04:36:51;22.30;69.90
82901;DHT22;72673;50.822;3.280;2023-09-08T04:39:17;22.10;70.90
82901;DHT22;72673;50.822;3.280;2023-09-08T04:41:42;22.10;70.90
82901;DHT22;72673;50.822;3.280;2023-09-08T04:44:08;22.10;70.90
82901;DHT22;72673;50.822;3.280;2023-09-08T04:46:35;22.10;70.90
82901;DHT22;72673;50.822;3.280;2023-09-08T04:49:00;22.00;71.30
82901;DHT22;72673;50.822;3.280;2023-09-08T04:51:26;21.90;72.00
82901;DHT22;72673;50.822;3.280;2023-09-08T04:53:52;21.90;72.10
82901;DHT22;72673;50.822;3.280;2023-09-08T04:56:18;21.80;72.00
82901;DHT22;72673;50.822;3.280;2023-09-08T04:58:43;22.10;71.20
82901;DHT22;72673;50.822;3.280;2023-09-08T05:01:09;22.30;70.40
82901;DHT22;72673;50.822;3.280;2023-09-08T05:03:34;22.20;70.90
82901;DHT22;72673;50.822;3.280;2023-09-08T05:06:00;22.10;71.00
82901;DHT22;72673;50.822;3.280;2023-09-08T05:08:27;22.20;70.70
82901;DHT22;72673;50.822;3.280;2023-09-08T05:10:53;22.20;70.40
82901;DHT22;72673;50.822;3.280;2023-09-08T05:13:18;22.30;70.00
82901;DHT22;72673;50.822;3.280;2023-09-08T05:15:44;22.30;70.20
82901;DHT22;72673;50.822;3.280;2023-09-08T05:18:13;22.10;70.90
82901;DHT22;72673;50.822;3.280;2023-09-08T05:20:39;22.00;71.40
82901;DHT22;72673;50.822;3.280;2023-09-08T05:23:05;22.00;71.70
82901;DHT22;72673;50.822;3.280;2023-09-08T05:25:31;22.00;71.40
82901;DHT22;72673;50.822;3.280;2023-09-08T05:27:56;22.10;71.30
82901;DHT22;72673;50.822;3.280;2023-09-08T05:30:22;22.10;71.30
82901;DHT22;72673;50.822;3.280;2023-09-08T05:32:48;22.00;71.70
82901;DHT22;72673;50.822;3.280;2023-09-08T05:35:13;22.10;71.60
82901;DHT22;72673;50.822;3.280;2023-09-08T05:37:39;21.80;72.40
82901;DHT22;72673;50.822;3.280;2023-09-08T05:40:06;22.00;71.90
82901;DHT22;72673;50.822;3.280;2023-09-08T05:42:32;22.00;72.00
82901;DHT22;72673;50.822;3.280;2023-09-08T05:44:58;22.00;71.80
82901;DHT22;72673;50.822;3.280;2023-09-08T05:47:23;22.10;71.70
82901;DHT22;72673;50.822;3.280;2023-09-08T05:49:49;22.10;71.80
82901;DHT22;72673;50.822;3.280;2023-09-08T05:52:15;22.30;71.20
82901;DHT22;72673;50.822;3.280;2023-09-08T05:54:41;22.40;70.60
82901;DHT22;72673;50.822;3.280;2023-09-08T05:57:07;22.30;70.90
82901;DHT22;72673;50.822;3.280;2023-09-08T05:59:33;22.30;71.10
82901;DHT22;72673;50.822;3.280;2023-09-08T06:01:58;22.30;71.20
82901;DHT22;72673;50.822;3.280;2023-09-08T06:04:27;22.30;71.00
82901;DHT22;72673;50.822;3.280;2023-09-08T06:06:52;22.30;71.10
82901;DHT22;72673;50.822;3.280;2023-09-08T06:09:18;22.60;70.10
82901;DHT22;72673;50.822;3.280;2023-09-08T06:11:44;22.60;69.90
82901;DHT22;72673;50.822;3.280;2023-09-08T06:14:09;22.70;69.70
82901;DHT22;72673;50.822;3.280;2023-09-08T06:16:35;22.80;69.50
82901;DHT22;72673;50.822;3.280;2023-09-08T06:19:02;22.80;69.50
82901;DHT22;72673;50.822;3.280;2023-09-08T06:21:28;22.80;69.70
82901;DHT22;72673;50.822;3.280;2023-09-08T06:23:54;22.80;69.50
82901;DHT22;72673;50.822;3.280;2023-09-08T06:26:20;22.90;69.50
82901;DHT22;72673;50.822;3.280;2023-09-08T06:28:45;23.00;69.30
82901;DHT22;72673;50.822;3.280;2023-09-08T06:31:11;23.20;68.40
82901;DHT22;72673;50.822;3.280;2023-09-08T06:33:37;23.20;68.10
82901;DHT22;72673;50.822;3.280;2023-09-08T06:36:02;23.20;68.20
82901;DHT22;72673;50.822;3.280;2023-09-08T06:38:29;23.30;68.80
82901;DHT22;72673;50.822;3.280;2023-09-08T06:40:57;23.30;68.00
82901;DHT22;72673;50.822;3.280;2023-09-08T06:43:22;23.40;67.40
82901;DHT22;72673;50.822;3.280;2023-09-08T06:45:49;23.40;67.30
82901;DHT22;72673;50.822;3.280;2023-09-08T06:48:15;23.20;68.50
82901;DHT22;72673;50.822;3.280;2023-09-08T06:50:41;23.30;68.10
82901;DHT22;72673;50.822;3.280;2023-09-08T06:53:06;23.20;68.20
82901;DHT22;72673;50.822;3.280;2023-09-08T06:55:32;23.20;68.40
82901;DHT22;72673;50.822;3.280;2023-09-08T06:57:58;23.50;67.40
82901;DHT22;72673;50.822;3.280;2023-09-08T07:00:24;23.60;66.80
82901;DHT22;72673;50.822;3.280;2023-09-08T07:02:50;23.50;67.40
82901;DHT22;72673;50.822;3.280;2023-09-08T07:05:16;23.50;67.50
82901;DHT22;72673;50.822;3.280;2023-09-08T07:07:41;23.60;67.30
82901;DHT22;72673;50.822;3.280;2023-09-08T07:10:07;23.60;67.20
82901;DHT22;72673;50.822;3.280;2023-09-08T07:12:34;23.60;67.30
82901;DHT22;72673;50.822;3.280;2023-09-08T07:15:00;23.70;66.90
82901;DHT22;72673;50.822;3.280;2023-09-08T07:17:26;23.80;66.70
82901;DHT22;72673;50.822;3.280;2023-09-08T07:19:52;23.80;67.00
82901;DHT22;72673;50.822;3.280;2023-09-08T07:22:18;23.80;66.70
82901;DHT22;72673;50.822;3.280;2023-09-08T07:24:44;23.90;66.40
82901;DHT22;72673;50.822;3.280;2023-09-08T07:27:10;23.90;66.50
82901;DHT22;72673;50.822;3.280;2023-09-08T07:29:39;24.00;66.20
82901;DHT22;72673;50.822;3.280;2023-09-08T07:32:06;24.10;65.70
82901;DHT22;72673;50.822;3.280;2023-09-08T07:34:31;24.10;66.00
82901;DHT22;72673;50.822;3.280;2023-09-08T07:36:57;24.20;65.60
82901;DHT22;72673;50.822;3.280;2023-09-08T07:39:22;24.30;65.60
82901;DHT22;72673;50.822;3.280;2023-09-08T07:41:48;24.50;64.90
82901;DHT22;72673;50.822;3.280;2023-09-08T07:44:14;24.50;64.70
82901;DHT22;72673;50.822;3.280;2023-09-08T07:46:40;24.60;64.40
82901;DHT22;72673;50.822;3.280;2023-09-08T07:49:05;24.40;65.20
82901;DHT22;72673;50.822;3.280;2023-09-08T07:51:31;24.70;64.60
82901;DHT22;72673;50.822;3.280;2023-09-08T07:53:57;24.80;64.60
82901;DHT22;72673;50.822;3.280;2023-09-08T07:56:22;24.80;64.40
82901;DHT22;72673;50.822;3.280;2023-09-08T07:58:48;24.90;64.30
82901;DHT22;72673;50.822;3.280;2023-09-08T08:01:14;24.90;64.10
82901;DHT22;72673;50.822;3.280;2023-09-08T08:03:41;24.90;64.70
82901;DHT22;72673;50.822;3.280;2023-09-08T08:06:06;25.10;64.10
82901;DHT22;72673;50.822;3.280;2023-09-08T08:08:33;25.10;63.70
82901;DHT22;72673;50.822;3.280;2023-09-08T08:11:09;25.20;63.80
82901;DHT22;72673;50.822;3.280;2023-09-08T08:13:35;25.20;64.00
82901;DHT22;72673;50.822;3.280;2023-09-08T08:16:00;25.40;63.60
82901;DHT22;72673;50.822;3.280;2023-09-08T08:18:26;25.30;63.90
82901;DHT22;72673;50.822;3.280;2023-09-08T08:20:52;25.20;64.20
82901;DHT22;72673;50.822;3.280;2023-09-08T08:23:17;25.40;63.50
82901;DHT22;72673;50.822;3.280;2023-09-08T08:25:43;25.40;63.80
82901;DHT22;72673;50.822;3.280;2023-09-08T08:28:09;25.50;63.90
82901;DHT22;72673;50.822;3.280;2023-09-08T08:30:34;25.70;63.00
82901;DHT22;72673;50.822;3.280;2023-09-08T08:33:01;26.00;62.30
82901;DHT22;72673;50.822;3.280;2023-09-08T08:35:27;26.10;62.20
82901;DHT22;72673;50.822;3.280;2023-09-08T08:37:53;26.30;62.80
82901;DHT22;72673;50.822;3.280;2023-09-08T08:40:19;26.50;61.30
82901;DHT22;72673;50.822;3.280;2023-09-08T08:42:45;26.40;61.50
82901;DHT22;72673;50.822;3.280;2023-09-08T08:45:11;26.50;61.10
82901;DHT22;72673;50.822;3.280;2023-09-08T08:47:37;26.60;60.70
82901;DHT22;72673;50.822;3.280;2023-09-08T08:50:05;26.90;59.70
82901;DHT22;72673;50.822;3.280;2023-09-08T08:52:35;27.00;58.70
82901;DHT22;72673;50.822;3.280;2023-09-08T08:55:01;27.00;58.30
82901;DHT22;72673;50.822;3.280;2023-09-08T08:57:27;26.90;58.60
82901;DHT22;72673;50.822;3.280;2023-09-08T08:59:55;27.10;58.60
82901;DHT22;72673;50.822;3.280;2023-09-08T09:02:22;27.20;57.80
82901;DHT22;72673;50.822;3.280;2023-09-08T09:04:48;27.00;58.70
82901;DHT22;72673;50.822;3.280;2023-09-08T09:07:14;26.90;59.70
82901;DHT22;72673;50.822;3.280;2023-09-08T09:09:40;27.00;58.30
82901;DHT22;72673;50.822;3.280;2023-09-08T09:12:06;27.30;57.20
82901;DHT22;72673;50.822;3.280;2023-09-08T09:14:33;27.50;56.30
82901;DHT22;72673;50.822;3.280;2023-09-08T09:16:59;27.70;55.60
82901;DHT22;72673;50.822;3.280;2023-09-08T09:19:25;28.40;54.40
82901;DHT22;72673;50.822;3.280;2023-09-08T09:21:54;29.20;51.80
82901;DHT22;72673;50.822;3.280;2023-09-08T09:24:37;30.10;49.30
82901;DHT22;72673;50.822;3.280;2023-09-08T09:27:07;30.60;47.60
82901;DHT22;72673;50.822;3.280;2023-09-08T09:29:34;31.00;46.80
82901;DHT22;72673;50.822;3.280;2023-09-08T09:32:04;31.80;45.10
82901;DHT22;72673;50.822;3.280;2023-09-08T09:34:31;32.10;44.80
82901;DHT22;72673;50.822;3.280;2023-09-08T09:36:57;32.80;42.50
82901;DHT22;72673;50.822;3.280;2023-09-08T09:39:24;32.40;43.20
82901;DHT22;72673;50.822;3.280;2023-09-08T09:41:55;32.20;44.10
82901;DHT22;72673;50.822;3.280;2023-09-08T09:44:22;33.00;41.30
82901;DHT22;72673;50.822;3.280;2023-09-08T09:46:48;32.40;42.50
82901;DHT22;72673;50.822;3.280;2023-09-08T09:49:15;32.60;41.60
82901;DHT22;72673;50.822;3.280;2023-09-08T09:51:49;33.30;40.10
82901;DHT22;72673;50.822;3.280;2023-09-08T09:54:17;33.30;39.70
82901;DHT22;72673;50.822;3.280;2023-09-08T09:56:44;32.90;40.80
82901;DHT22;72673;50.822;3.280;2023-09-08T09:59:11;33.10;40.00
82901;DHT22;72673;50.822;3.280;2023-09-08T10:01:38;33.90;38.40
82901;DHT22;72673;50.822;3.280;2023-09-08T10:04:05;34.60;37.20
82901;DHT22;72673;50.822;3.280;2023-09-08T10:06:35;35.40;36.10
82901;DHT22;72673;50.822;3.280;2023-09-08T10:09:02;34.50;37.60
82901;DHT22;72673;50.822;3.280;2023-09-08T10:11:34;34.60;37.90
82901;DHT22;72673;50.822;3.280;2023-09-08T10:14:00;35.80;35.70
82901;DHT22;72673;50.822;3.280;2023-09-08T10:16:28;36.50;33.70
82901;DHT22;72673;50.822;3.280;2023-09-08T10:18:58;37.50;30.70
82901;DHT22;72673;50.822;3.280;2023-09-08T10:21:26;37.80;31.10
82901;DHT22;72673;50.822;3.280;2023-09-08T10:26:40;36.60;31.40
82901;DHT22;72673;50.822;3.280;2023-09-08T10:29:09;37.40;30.10
82901;DHT22;72673;50.822;3.280;2023-09-08T10:31:36;37.90;28.60
82901;DHT22;72673;50.822;3.280;2023-09-08T10:34:02;38.70;28.00
82901;DHT22;72673;50.822;3.280;2023-09-08T10:36:28;40.10;26.30
82901;DHT22;72673;50.822;3.280;2023-09-08T10:38:54;39.60;26.40
82901;DHT22;72673;50.822;3.280;2023-09-08T10:41:34;38.60;27.70
82901;DHT22;72673;50.822;3.280;2023-09-08T10:44:06;37.20;29.40
82901;DHT22;72673;50.822;3.280;2023-09-08T10:46:33;37.90;28.90
82901;DHT22;72673;50.822;3.280;2023-09-08T10:49:07;38.00;27.90
82901;DHT22;72673;50.822;3.280;2023-09-08T10:51:33;38.50;27.80
82901;DHT22;72673;50.822;3.280;2023-09-08T10:54:00;38.10;28.60
82901;DHT22;72673;50.822;3.280;2023-09-08T10:56:55;38.70;28.20
82901;DHT22;72673;50.822;3.280;2023-09-08T10:59:27;39.40;26.30
82901;DHT22;72673;50.822;3.280;2023-09-08T11:01:54;39.00;27.10
82901;DHT22;72673;50.822;3.280;2023-09-08T11:04:21;39.00;26.60
82901;DHT22;72673;50.822;3.280;2023-09-08T11:06:49;39.60;25.80
82901;DHT22;72673;50.822;3.280;2023-09-08T11:09:15;40.70;24.90
82901;DHT22;72673;50.822;3.280;2023-09-08T11:11:41;40.80;25.60
82901;DHT22;72673;50.822;3.280;2023-09-08T11:14:07;40.90;24.10
82901;DHT22;72673;50.822;3.280;2023-09-08T11:16:33;40.90;25.00
82901;DHT22;72673;50.822;3.280;2023-09-08T11:18:59;40.80;24.50
82901;DHT22;72673;50.822;3.280;2023-09-08T11:21:26;40.10;25.10
82901;DHT22;72673;50.822;3.280;2023-09-08T11:23:58;39.90;24.50
82901;DHT22;72673;50.822;3.280;2023-09-08T11:26:24;40.20;24.50
82901;DHT22;72673;50.822;3.280;2023-09-08T11:28:49;40.60;24.40
82901;DHT22;72673;50.822;3.280;2023-09-08T11:31:16;40.50;24.40
82901;DHT22;72673;50.822;3.280;2023-09-08T11:33:41;40.10;24.90
82901;DHT22;72673;50.822;3.280;2023-09-08T11:36:14;40.40;24.30
82901;DHT22;72673;50.822;3.280;2023-09-08T11:38:40;40.90;23.30
82901;DHT22;72673;50.822;3.280;2023-09-08T11:41:07;41.30;22.80
82901;DHT22;72673;50.822;3.280;2023-09-08T11:43:33;41.00;23.20
82901;DHT22;72673;50.822;3.280;2023-09-08T11:46:00;41.30;22.40
82901;DHT22;72673;50.822;3.280;2023-09-08T11:48:26;41.40;22.70
82901;DHT22;72673;50.822;3.280;2023-09-08T11:50:54;40.90;23.60
82901;DHT22;72673;50.822;3.280;2023-09-08T11:53:21;40.90;23.60
82901;DHT22;72673;50.822;3.280;2023-09-08T11:55:48;41.80;22.40
82901;DHT22;72673;50.822;3.280;2023-09-08T11:58:15;42.20;21.80
82901;DHT22;72673;50.822;3.280;2023-09-08T12:00:41;42.40;21.80
82901;DHT22;72673;50.822;3.280;2023-09-08T12:03:14;42.50;21.40
82901;DHT22;72673;50.822;3.280;2023-09-08T12:05:44;41.80;22.20
82901;DHT22;72673;50.822;3.280;2023-09-08T12:08:10;41.50;22.70
82901;DHT22;72673;50.822;3.280;2023-09-08T12:10:40;41.40;22.40
82901;DHT22;72673;50.822;3.280;2023-09-08T12:13:07;41.50;23.00
82901;DHT22;72673;50.822;3.280;2023-09-08T12:15:37;40.70;23.80
82901;DHT22;72673;50.822;3.280;2023-09-08T12:18:04;40.90;23.10
82901;DHT22;72673;50.822;3.280;2023-09-08T12:20:30;41.80;22.60
82901;DHT22;72673;50.822;3.280;2023-09-08T12:23:01;41.30;23.40
82901;DHT22;72673;50.822;3.280;2023-09-08T12:25:27;41.90;23.50
82901;DHT22;72673;50.822;3.280;2023-09-08T12:27:54;42.10;23.00
82901;DHT22;72673;50.822;3.280;2023-09-08T12:30:21;42.50;22.50
82901;DHT22;72673;50.822;3.280;2023-09-08T12:32:48;41.00;24.10
82901;DHT22;72673;50.822;3.280;2023-09-08T12:35:22;40.10;25.60
82901;DHT22;72673;50.822;3.280;2023-09-08T12:37:59;40.30;25.10
82901;DHT22;72673;50.822;3.280;2023-09-08T12:40:28;40.50;25.20
82901;DHT22;72673;50.822;3.280;2023-09-08T12:42:54;41.70;23.80
82901;DHT22;72673;50.822;3.280;2023-09-08T12:45:21;42.30;22.60
82901;DHT22;72673;50.822;3.280;2023-09-08T12:47:48;42.40;22.90
82901;DHT22;72673;50.822;3.280;2023-09-08T12:50:14;42.90;22.40
82901;DHT22;72673;50.822;3.280;2023-09-08T12:52:40;42.30;22.80
82901;DHT22;72673;50.822;3.280;2023-09-08T12:55:06;42.10;22.90
82901;DHT22;72673;50.822;3.280;2023-09-08T12:57:32;41.90;23.20
82901;DHT22;72673;50.822;3.280;2023-09-08T12:59:58;42.60;22.30
82901;DHT22;72673;50.822;3.280;2023-09-08T13:02:24;42.50;22.20
82901;DHT22;72673;50.822;3.280;2023-09-08T13:04:49;42.10;22.60
82901;DHT22;72673;50.822;3.280;2023-09-08T13:07:16;42.20;22.50
82901;DHT22;72673;50.822;3.280;2023-09-08T13:09:42;41.50;23.30
82901;DHT22;72673;50.822;3.280;2023-09-08T13:12:07;41.80;23.30
82901;DHT22;72673;50.822;3.280;2023-09-08T13:14:38;41.70;23.10
82901;DHT22;72673;50.822;3.280;2023-09-08T13:17:03;42.30;22.00
82901;DHT22;72673;50.822;3.280;2023-09-08T13:19:29;41.80;22.90
82901;DHT22;72673;50.822;3.280;2023-09-08T13:21:55;41.70;22.70
82901;DHT22;72673;50.822;3.280;2023-09-08T13:24:21;40.80;23.80
82901;DHT22;72673;50.822;3.280;2023-09-08T13:26:47;40.80;23.70
82901;DHT22;72673;50.822;3.280;2023-09-08T13:29:13;41.20;23.30
82901;DHT22;72673;50.822;3.280;2023-09-08T13:31:39;41.50;21.50
82901;DHT22;72673;50.822;3.280;2023-09-08T13:34:05;41.80;21.70
82901;DHT22;72673;50.822;3.280;2023-09-08T13:36:31;42.20;20.80
82901;DHT22;72673;50.822;3.280;2023-09-08T13:38:56;41.80;21.30
82901;DHT22;72673;50.822;3.280;2023-09-08T13:41:23;41.00;22.30
82901;DHT22;72673;50.822;3.280;2023-09-08T13:43:48;41.80;21.60
82901;DHT22;72673;50.822;3.280;2023-09-08T13:46:14;42.50;20.70
82901;DHT22;72673;50.822;3.280;2023-09-08T13:48:40;42.40;21.10
82901;DHT22;72673;50.822;3.280;2023-09-08T13:51:05;42.30;21.10
82901;DHT22;72673;50.822;3.280;2023-09-08T13:53:31;42.30;21.30
82901;DHT22;72673;50.822;3.280;2023-09-08T13:55:57;43.40;20.50
82901;DHT22;72673;50.822;3.280;2023-09-08T13:58:23;43.80;19.70
82901;DHT22;72673;50.822;3.280;2023-09-08T14:00:48;42.60;20.90
82901;DHT22;72673;50.822;3.280;2023-09-08T14:03:16;42.50;21.50
82901;DHT22;72673;50.822;3.280;2023-09-08T14:05:41;42.50;21.10
82901;DHT22;72673;50.822;3.280;2023-09-08T14:08:07;43.00;21.00
82901;DHT22;72673;50.822;3.280;2023-09-08T14:10:33;43.40;20.60
82901;DHT22;72673;50.822;3.280;2023-09-08T14:12:58;43.10;20.50
82901;DHT22;72673;50.822;3.280;2023-09-08T14:15:24;42.50;20.90
82901;DHT22;72673;50.822;3.280;2023-09-08T14:17:49;43.00;20.30
82901;DHT22;72673;50.822;3.280;2023-09-08T14:20:15;43.40;19.90
82901;DHT22;72673;50.822;3.280;2023-09-08T14:22:41;43.70;19.70
82901;DHT22;72673;50.822;3.280;2023-09-08T14:25:07;44.20;19.20
82901;DHT22;72673;50.822;3.280;2023-09-08T14:27:32;44.20;18.90
82901;DHT22;72673;50.822;3.280;2023-09-08T14:29:59;44.40;18.20
82901;DHT22;72673;50.822;3.280;2023-09-08T14:32:25;43.80;18.80
82901;DHT22;72673;50.822;3.280;2023-09-08T14:34:50;43.40;18.90
82901;DHT22;72673;50.822;3.280;2023-09-08T14:37:16;44.10;18.50
82901;DHT22;72673;50.822;3.280;2023-09-08T14:39:41;44.30;18.40
82901;DHT22;72673;50.822;3.280;2023-09-08T14:42:07;44.60;17.80
82901;DHT22;72673;50.822;3.280;2023-09-08T14:44:35;44.10;18.10
82901;DHT22;72673;50.822;3.280;2023-09-08T14:47:00;44.20;18.00
82901;DHT22;72673;50.822;3.280;2023-09-08T14:49:26;44.30;17.70
82901;DHT22;72673;50.822;3.280;2023-09-08T14:51:52;44.30;17.70
82901;DHT22;72673;50.822;3.280;2023-09-08T14:54:17;43.80;18.00
82901;DHT22;72673;50.822;3.280;2023-09-08T14:56:43;43.70;19.30
82901;DHT22;72673;50.822;3.280;2023-09-08T14:59:09;43.70;19.10
82901;DHT22;72673;50.822;3.280;2023-09-08T15:01:35;43.20;19.10
82901;DHT22;72673;50.822;3.280;2023-09-08T15:04:01;42.60;20.00
82901;DHT22;72673;50.822;3.280;2023-09-08T15:06:26;42.50;20.00
82901;DHT22;72673;50.822;3.280;2023-09-08T15:08:52;42.60;20.10
82901;DHT22;72673;50.822;3.280;2023-09-08T15:11:18;42.80;19.80
82901;DHT22;72673;50.822;3.280;2023-09-08T15:13:43;41.60;20.60
82901;DHT22;72673;50.822;3.280;2023-09-08T15:16:09;41.80;20.50
82901;DHT22;72673;50.822;3.280;2023-09-08T15:18:34;41.50;21.50
82901;DHT22;72673;50.822;3.280;2023-09-08T15:21:00;40.90;21.60
82901;DHT22;72673;50.822;3.280;2023-09-08T15:23:27;40.70;22.40
82901;DHT22;72673;50.822;3.280;2023-09-08T15:25:57;40.50;21.80
82901;DHT22;72673;50.822;3.280;2023-09-08T15:28:23;40.00;23.50
82901;DHT22;72673;50.822;3.280;2023-09-08T15:30:50;40.50;22.10
82901;DHT22;72673;50.822;3.280;2023-09-08T15:33:16;40.70;21.70